createdAt,value
2018-05-10T00:00:06.364Z,16.60
2018-05-10T00:02:34.718Z,16.60
2018-05-10T00:05:03.217Z,16.60
2018-05-10T00:07:30.752Z,16.60
2018-05-10T00:09:58.338Z,16.60
2018-05-10T00:12:25.901Z,16.60
2018-05-10T00:14:53.468Z,16.50
2018-05-10T00:17:21.061Z,16.50
2018-05-10T00:19:50.818Z,16.40
2018-05-10T00:22:18.395Z,16.40
2018-05-10T00:24:45.983Z,16.40
2018-05-10T00:27:13.592Z,16.40
2018-05-10T00:29:41.194Z,16.40
2018-05-10T00:32:08.799Z,16.40
2018-05-10T00:34:36.380Z,16.30
2018-05-10T00:37:03.997Z,16.30
2018-05-10T00:39:31.558Z,16.30
2018-05-10T00:41:59.145Z,16.30
2018-05-10T00:44:26.726Z,16.20
2018-05-10T00:46:55.091Z,16.20
2018-05-10T00:49:22.651Z,16.20
2018-05-10T00:51:50.244Z,16.20
2018-05-10T00:54:29.583Z,16.30
2018-05-10T00:56:57.207Z,16.30
2018-05-10T00:59:24.801Z,16.30
2018-05-10T01:01:52.490Z,16.20
2018-05-10T01:04:20.073Z,16.20
2018-05-10T01:06:47.681Z,16.20
2018-05-10T01:09:15.249Z,16.20
2018-05-10T01:11:42.830Z,16.10
2018-05-10T01:14:11.171Z,15.90
2018-05-10T01:16:38.786Z,15.90
2018-05-10T01:19:06.372Z,15.70
2018-05-10T01:21:33.966Z,15.60
2018-05-10T01:24:01.567Z,15.60
2018-05-10T01:26:29.925Z,15.40
2018-05-10T01:28:57.525Z,15.40
2018-05-10T01:31:26.768Z,15.40
2018-05-10T01:33:54.357Z,15.40
2018-05-10T01:36:21.943Z,15.50
2018-05-10T01:38:50.315Z,15.30
2018-05-10T01:41:17.909Z,15.30
2018-05-10T01:43:46.253Z,15.30
2018-05-10T01:46:13.868Z,15.30
2018-05-10T01:48:41.475Z,15.30
2018-05-10T01:51:09.167Z,15.30
2018-05-10T01:53:39.297Z,15.30
2018-05-10T01:56:07.639Z,15.30
2018-05-10T01:58:35.259Z,15.20
2018-05-10T02:01:03.606Z,15.20
2018-05-10T02:03:31.218Z,15.20
2018-05-10T02:05:59.589Z,15.30
2018-05-10T02:08:27.932Z,15.30
2018-05-10T02:10:55.525Z,15.30
2018-05-10T02:13:23.901Z,15.30
2018-05-10T02:15:52.243Z,15.30
2018-05-10T02:18:19.835Z,15.30
2018-05-10T02:20:47.439Z,15.40
2018-05-10T02:23:15.738Z,15.40
2018-05-10T02:25:43.331Z,15.40
2018-05-10T02:28:11.821Z,15.40
2018-05-10T02:30:39.423Z,15.30
2018-05-10T02:33:07.779Z,15.20
2018-05-10T02:35:35.396Z,15.20
2018-05-10T02:38:02.992Z,15.10
2018-05-10T02:40:30.581Z,14.80
2018-05-10T02:42:58.168Z,14.50
2018-05-10T02:45:26.527Z,14.20
2018-05-10T02:47:54.126Z,14.20
2018-05-10T02:50:21.707Z,14.10
2018-05-10T02:52:49.290Z,14.10
2018-05-10T02:55:16.864Z,14.10
2018-05-10T02:57:44.481Z,14.10
2018-05-10T03:00:12.077Z,14.10
2018-05-10T03:02:39.681Z,14.20
2018-05-10T03:05:07.255Z,14.20
2018-05-10T03:07:35.604Z,14.30
2018-05-10T03:10:03.253Z,14.30
2018-05-10T03:12:30.839Z,14.40
2018-05-10T03:14:58.399Z,14.40
2018-05-10T03:17:26.113Z,14.40
2018-05-10T03:19:54.479Z,14.40
2018-05-10T03:22:23.383Z,14.40
2018-05-10T03:24:51.736Z,14.30
2018-05-10T03:27:19.322Z,14.30
2018-05-10T03:29:46.907Z,14.20
2018-05-10T03:32:15.396Z,14.20
2018-05-10T03:34:42.984Z,14.20
2018-05-10T03:37:10.575Z,14.20
2018-05-10T03:39:38.169Z,14.30
2018-05-10T03:42:05.787Z,14.30
2018-05-10T03:44:33.395Z,14.30
2018-05-10T03:47:00.995Z,14.30
2018-05-10T03:49:28.610Z,14.20
2018-05-10T03:51:56.949Z,14.20
2018-05-10T03:54:24.528Z,14.20
2018-05-10T03:56:52.143Z,14.30
2018-05-10T03:59:19.743Z,14.20
2018-05-10T04:01:47.372Z,14.30
2018-05-10T04:04:27.549Z,14.30
2018-05-10T04:07:07.665Z,14.30
2018-05-10T04:09:46.977Z,14.30
2018-05-10T04:12:14.554Z,14.30
2018-05-10T04:14:42.162Z,14.30
2018-05-10T04:17:10.503Z,14.20
2018-05-10T04:19:39.144Z,14.20
2018-05-10T04:22:07.214Z,14.20
2018-05-10T04:24:34.805Z,14.20
2018-05-10T04:27:03.151Z,14.10
2018-05-10T04:29:31.541Z,14.10
2018-05-10T04:31:59.869Z,14.10
2018-05-10T04:34:27.447Z,14.10
2018-05-10T04:36:55.067Z,14.10
2018-05-10T04:39:22.656Z,14.00
2018-05-10T04:41:50.256Z,14.10
2018-05-10T04:44:17.865Z,14.10
2018-05-10T04:46:45.462Z,14.10
2018-05-10T04:49:13.800Z,14.10
2018-05-10T04:51:41.376Z,14.00
2018-05-10T04:54:08.966Z,14.00
2018-05-10T04:56:36.547Z,14.00
2018-05-10T04:59:04.863Z,14.00
2018-05-10T05:01:33.214Z,14.10
2018-05-10T05:04:01.494Z,14.10
2018-05-10T05:06:29.084Z,14.00
2018-05-10T05:08:57.432Z,14.10
2018-05-10T05:11:25.015Z,14.10
2018-05-10T05:13:52.637Z,14.00
2018-05-10T05:16:20.215Z,14.00
2018-05-10T05:18:47.805Z,14.00
2018-05-10T05:21:15.396Z,14.00
2018-05-10T05:23:43.731Z,14.00
2018-05-10T05:26:11.301Z,14.00
2018-05-10T05:28:38.899Z,14.00
2018-05-10T05:31:06.510Z,13.90
2018-05-10T05:33:34.421Z,13.90
2018-05-10T05:36:02.008Z,13.80
2018-05-10T05:38:30.381Z,13.90
2018-05-10T05:40:58.029Z,13.80
2018-05-10T05:43:25.711Z,13.80
2018-05-10T05:45:53.195Z,13.80
2018-05-10T05:48:21.536Z,13.80
2018-05-10T05:50:49.108Z,13.80
2018-05-10T05:53:16.712Z,13.80
2018-05-10T05:55:45.243Z,13.70
2018-05-10T05:58:12.848Z,13.70
2018-05-10T06:00:40.410Z,13.70
2018-05-10T06:03:08.933Z,13.60
2018-05-10T06:05:36.527Z,13.60
2018-05-10T06:08:04.119Z,13.60
2018-05-10T06:10:31.706Z,13.60
2018-05-10T06:13:00.053Z,13.70
2018-05-10T06:15:27.693Z,13.70
2018-05-10T06:17:56.016Z,13.80
2018-05-10T06:20:23.587Z,13.80
2018-05-10T06:22:51.176Z,13.90
2018-05-10T06:25:18.772Z,13.90
2018-05-10T06:27:47.786Z,14.00
2018-05-10T06:30:15.373Z,14.10
2018-05-10T06:32:43.577Z,14.10
2018-05-10T06:35:11.916Z,14.10
2018-05-10T06:37:39.563Z,14.00
2018-05-10T06:40:07.136Z,14.10
2018-05-10T06:42:34.701Z,14.10
2018-05-10T06:45:02.264Z,14.10
2018-05-10T06:47:29.854Z,14.20
2018-05-10T06:49:58.896Z,14.20
2018-05-10T06:52:26.536Z,14.20
2018-05-10T06:54:54.068Z,14.10
2018-05-10T06:57:21.669Z,14.00
2018-05-10T06:59:50.008Z,13.90
2018-05-10T07:02:17.635Z,13.90
2018-05-10T07:04:45.222Z,13.90
2018-05-10T07:07:12.800Z,13.90
2018-05-10T07:09:40.497Z,13.70
2018-05-10T07:12:07.968Z,13.60
2018-05-10T07:14:35.539Z,13.50
2018-05-10T07:17:03.900Z,13.30
2018-05-10T07:19:31.473Z,13.30
2018-05-10T07:21:59.057Z,13.30
2018-05-10T07:24:26.651Z,13.30
2018-05-10T07:26:54.224Z,13.40
2018-05-10T07:29:21.809Z,13.50
2018-05-10T07:31:49.377Z,13.50
2018-05-10T07:34:16.945Z,13.50
2018-05-10T07:36:44.551Z,13.40
2018-05-10T07:39:12.941Z,13.20
2018-05-10T07:41:40.500Z,13.20
2018-05-10T07:44:08.838Z,13.30
2018-05-10T07:46:36.430Z,13.30
2018-05-10T07:49:04.778Z,13.30
2018-05-10T07:51:32.356Z,13.30
2018-05-10T07:53:59.938Z,13.40
2018-05-10T07:56:28.284Z,13.50
2018-05-10T07:58:56.825Z,13.50
2018-05-10T08:01:24.403Z,13.50
2018-05-10T08:03:51.973Z,13.50
2018-05-10T08:06:19.556Z,13.60
2018-05-10T08:08:47.152Z,13.50
2018-05-10T08:11:14.755Z,13.50
2018-05-10T08:13:42.359Z,13.50
2018-05-10T08:16:09.955Z,13.50
2018-05-10T08:18:37.557Z,13.40
2018-05-10T08:21:05.152Z,13.40
2018-05-10T08:23:45.182Z,13.30
2018-05-10T08:26:12.758Z,13.40
2018-05-10T08:28:41.129Z,13.50
2018-05-10T08:31:08.930Z,13.50
2018-05-10T08:33:36.517Z,13.40
2018-05-10T08:36:04.179Z,13.50
2018-05-10T08:38:31.803Z,13.50
2018-05-10T08:40:59.394Z,13.50
2018-05-10T08:43:26.983Z,13.70
2018-05-10T08:45:54.550Z,13.80
2018-05-10T08:48:22.890Z,14.30
2018-05-10T08:50:50.562Z,14.30
2018-05-10T08:53:18.257Z,14.60
2018-05-10T08:55:45.859Z,14.70
2018-05-10T08:58:15.120Z,14.90
2018-05-10T09:00:42.683Z,15.10
2018-05-10T09:03:10.747Z,15.30
2018-05-10T09:05:39.799Z,15.40
2018-05-10T09:08:07.373Z,15.60
2018-05-10T09:10:34.962Z,15.50
2018-05-10T09:13:02.551Z,15.40
2018-05-10T09:15:31.099Z,15.30
2018-05-10T09:17:58.700Z,15.30
2018-05-10T09:20:26.333Z,15.30
2018-05-10T09:22:53.927Z,15.30
2018-05-10T09:25:21.521Z,15.30
2018-05-10T09:27:49.107Z,15.40
2018-05-10T09:30:16.662Z,15.40
2018-05-10T09:32:45.089Z,15.30
2018-05-10T09:35:12.676Z,15.30
2018-05-10T09:37:40.263Z,15.30
2018-05-10T09:40:08.628Z,15.60
2018-05-10T09:42:36.225Z,15.60
2018-05-10T09:45:03.835Z,15.70
2018-05-10T09:47:31.402Z,15.70
2018-05-10T09:49:59.021Z,15.80
2018-05-10T09:52:27.385Z,15.70
2018-05-10T09:54:54.976Z,15.70
2018-05-10T09:57:22.605Z,15.50
2018-05-10T09:59:50.250Z,15.40
2018-05-10T10:02:17.842Z,15.40
2018-05-10T10:04:45.412Z,15.30
2018-05-10T10:07:13.026Z,15.20
2018-05-10T10:09:40.633Z,15.00
2018-05-10T10:12:08.306Z,15.00
2018-05-10T10:14:36.674Z,15.00
2018-05-10T10:17:04.295Z,15.00
2018-05-10T10:19:32.199Z,15.00
2018-05-10T10:21:59.780Z,15.00
2018-05-10T10:24:27.401Z,15.00
2018-05-10T10:26:55.003Z,15.00
2018-05-10T10:29:22.587Z,15.00
2018-05-10T10:31:50.977Z,15.10
2018-05-10T10:34:19.329Z,15.20
2018-05-10T10:36:46.933Z,15.10
2018-05-10T10:39:15.293Z,15.30
2018-05-10T10:41:42.879Z,15.20
2018-05-10T10:44:11.236Z,15.40
2018-05-10T10:46:38.916Z,15.30
2018-05-10T10:49:06.503Z,15.40
2018-05-10T10:51:34.089Z,15.40
2018-05-10T10:54:01.679Z,15.50
2018-05-10T10:56:29.274Z,15.50
2018-05-10T10:58:56.853Z,15.50
2018-05-10T11:01:25.235Z,15.60
2018-05-10T11:03:52.816Z,15.60
2018-05-10T11:06:21.153Z,15.70
2018-05-10T11:08:48.826Z,15.60
2018-05-10T11:11:16.385Z,15.70
2018-05-10T11:13:43.964Z,15.80
2018-05-10T11:16:11.580Z,15.80
2018-05-10T11:18:39.181Z,15.90
2018-05-10T11:21:06.780Z,16.00
2018-05-10T11:23:36.017Z,16.20
2018-05-10T11:26:03.598Z,16.20
2018-05-10T11:28:31.184Z,16.30
2018-05-10T11:30:58.773Z,16.30
2018-05-10T11:33:27.149Z,16.40
2018-05-10T11:35:54.724Z,16.40
2018-05-10T11:38:23.078Z,16.20
2018-05-10T11:40:50.668Z,16.20
2018-05-10T11:43:19.022Z,16.20
2018-05-10T11:45:46.638Z,16.20
2018-05-10T11:48:14.243Z,16.20
2018-05-10T11:50:41.819Z,16.20
2018-05-10T11:53:09.435Z,16.20
2018-05-10T11:55:37.017Z,16.20
2018-05-10T11:58:04.615Z,16.30
2018-05-10T12:00:32.198Z,16.30
2018-05-10T12:02:59.799Z,16.30
2018-05-10T12:05:27.391Z,16.30
2018-05-10T12:07:54.976Z,16.30
2018-05-10T12:10:22.572Z,16.40
2018-05-10T12:12:50.932Z,16.80
2018-05-10T12:15:18.503Z,16.80
2018-05-10T12:17:46.090Z,17.00
2018-05-10T12:20:14.426Z,17.50
2018-05-10T12:22:42.048Z,17.50
2018-05-10T12:25:09.663Z,17.70
2018-05-10T12:27:37.245Z,17.60
2018-05-10T12:30:04.865Z,17.70
2018-05-10T12:32:32.441Z,17.90
2018-05-10T12:35:00.039Z,18.10
2018-05-10T12:37:27.635Z,18.30
2018-05-10T12:39:55.215Z,18.50
2018-05-10T12:42:22.809Z,18.50
2018-05-10T12:44:50.405Z,18.40
2018-05-10T12:47:17.980Z,18.30
2018-05-10T12:49:46.331Z,18.50
2018-05-10T12:52:13.915Z,18.50
2018-05-10T12:54:41.602Z,18.90
2018-05-10T12:57:09.977Z,19.60
2018-05-10T12:59:38.333Z,19.70
2018-05-10T13:02:05.974Z,19.70
2018-05-10T13:04:33.600Z,19.60
2018-05-10T13:07:01.972Z,19.90
2018-05-10T13:09:29.538Z,19.90
2018-05-10T13:11:57.939Z,19.50
2018-05-10T13:14:25.556Z,19.50
2018-05-10T13:16:53.132Z,19.50
2018-05-10T13:19:20.847Z,19.60
2018-05-10T13:21:48.454Z,19.50
2018-05-10T13:24:16.064Z,19.30
2018-05-10T13:26:43.673Z,19.20
2018-05-10T13:29:11.275Z,19.10
2018-05-10T13:31:38.877Z,19.10
2018-05-10T13:34:06.481Z,18.80
2018-05-10T13:36:34.081Z,18.90
2018-05-10T13:39:02.442Z,19.20
2018-05-10T13:41:30.089Z,19.10
2018-05-10T13:43:57.670Z,19.10
2018-05-10T13:46:25.270Z,19.10
2018-05-10T13:48:54.526Z,19.50
2018-05-10T13:51:22.118Z,19.50
2018-05-10T13:53:49.712Z,19.70
2018-05-10T13:56:17.361Z,19.50
2018-05-10T13:58:44.906Z,19.10
2018-05-10T14:01:13.277Z,19.40
2018-05-10T14:03:40.863Z,19.40
2018-05-10T14:06:08.437Z,19.70
2018-05-10T14:08:36.777Z,20.40
2018-05-10T14:11:04.468Z,20.40
2018-05-10T14:13:32.035Z,20.70
2018-05-10T14:15:59.596Z,20.90
2018-05-10T14:18:27.206Z,21.10
2018-05-10T14:20:54.790Z,20.90
2018-05-10T14:23:22.376Z,20.70
2018-05-10T14:25:49.958Z,21.10
2018-05-10T14:28:17.557Z,20.60
2018-05-10T14:30:45.152Z,20.30
2018-05-10T14:33:12.761Z,20.00
2018-05-10T14:35:41.108Z,19.90
2018-05-10T14:38:08.680Z,19.90
2018-05-10T14:40:36.246Z,20.10
2018-05-10T14:43:03.843Z,20.50
2018-05-10T14:45:32.199Z,20.40
2018-05-10T14:47:59.785Z,20.40
2018-05-10T14:50:28.154Z,20.70
2018-05-10T14:52:55.743Z,20.70
2018-05-10T14:55:24.075Z,21.30
2018-05-10T14:57:51.671Z,21.30
2018-05-10T15:00:20.037Z,21.40
2018-05-10T15:02:47.622Z,21.30
2018-05-10T15:05:15.197Z,21.40
2018-05-10T15:07:43.576Z,21.30
2018-05-10T15:10:11.922Z,21.30
2018-05-10T15:12:39.518Z,21.30
2018-05-10T15:15:07.876Z,20.80
2018-05-10T15:17:35.486Z,20.80
2018-05-10T15:20:03.870Z,20.60
2018-05-10T15:22:31.478Z,20.60
2018-05-10T15:24:59.088Z,20.60
2018-05-10T15:27:27.406Z,20.70
2018-05-10T15:29:54.993Z,20.70
2018-05-10T15:32:22.574Z,20.90
2018-05-10T15:34:50.142Z,21.10
2018-05-10T15:37:17.752Z,21.10
2018-05-10T15:39:45.337Z,20.50
2018-05-10T15:42:13.815Z,21.00
2018-05-10T15:44:41.381Z,21.00
2018-05-10T15:47:08.943Z,20.60
2018-05-10T15:49:36.590Z,20.20
2018-05-10T15:52:04.226Z,19.80
2018-05-10T15:54:31.800Z,20.20
2018-05-10T15:57:00.130Z,21.70
2018-05-10T15:59:27.771Z,21.70
2018-05-10T16:01:55.318Z,21.80
2018-05-10T16:04:23.688Z,20.90
2018-05-10T16:06:51.276Z,20.90
2018-05-10T16:09:18.845Z,20.50
2018-05-10T16:11:46.463Z,20.20
2018-05-10T16:14:14.042Z,20.10
2018-05-10T16:16:41.645Z,19.90
2018-05-10T16:19:09.249Z,20.00
2018-05-10T16:21:36.865Z,19.90
2018-05-10T16:24:06.096Z,20.00
2018-05-10T16:26:34.496Z,19.70
2018-05-10T16:29:02.068Z,19.70
2018-05-10T16:31:29.658Z,19.50
2018-05-10T16:33:57.242Z,19.40
2018-05-10T16:36:25.854Z,19.10
2018-05-10T16:38:53.450Z,19.00
2018-05-10T16:41:21.026Z,19.00
2018-05-10T16:43:48.607Z,19.00
2018-05-10T16:46:16.963Z,18.70
2018-05-10T16:48:44.561Z,18.60
2018-05-10T16:51:12.211Z,18.50
2018-05-10T16:53:39.808Z,18.30
2018-05-10T16:56:08.164Z,18.00
2018-05-10T16:58:35.764Z,18.00
2018-05-10T17:01:03.450Z,17.80
2018-05-10T17:03:31.043Z,17.80
2018-05-10T17:05:58.627Z,17.90
2018-05-10T17:08:26.226Z,18.00
2018-05-10T17:10:53.808Z,18.10
2018-05-10T17:13:21.403Z,17.90
2018-05-10T17:15:49.017Z,17.90
2018-05-10T17:18:16.576Z,18.00
2018-05-10T17:20:44.937Z,17.90
2018-05-10T17:23:13.307Z,17.90
2018-05-10T17:25:40.891Z,17.90
2018-05-10T17:28:09.234Z,17.90
2018-05-10T17:30:36.798Z,17.90
2018-05-10T17:33:04.392Z,17.80
2018-05-10T17:35:32.796Z,17.40
2018-05-10T17:38:02.206Z,17.20
2018-05-10T17:40:29.788Z,17.20
2018-05-10T17:42:57.389Z,17.00
2018-05-10T17:45:24.968Z,16.90
2018-05-10T17:47:53.347Z,16.90
2018-05-10T17:50:20.934Z,16.90
2018-05-10T17:52:49.298Z,16.60
2018-05-10T17:55:16.908Z,16.60
2018-05-10T17:57:44.512Z,16.50
2018-05-10T18:00:12.098Z,16.50
2018-05-10T18:02:39.691Z,16.40
2018-05-10T18:05:07.282Z,16.40
2018-05-10T18:07:34.860Z,16.30
2018-05-10T18:10:02.443Z,16.20
2018-05-10T18:12:30.032Z,16.10
2018-05-10T18:14:57.666Z,16.00
2018-05-10T18:17:25.261Z,15.90
2018-05-10T18:19:52.847Z,15.70
2018-05-10T18:22:21.188Z,15.60
2018-05-10T18:24:48.784Z,15.60
2018-05-10T18:27:17.161Z,15.50
2018-05-10T18:29:44.784Z,15.50
2018-05-10T18:32:12.397Z,15.40
2018-05-10T18:34:39.967Z,15.40
2018-05-10T18:37:08.305Z,15.20
2018-05-10T18:39:35.889Z,15.20
2018-05-10T18:42:03.468Z,15.20
2018-05-10T18:44:31.073Z,15.10
2018-05-10T18:46:58.671Z,15.00
2018-05-10T18:49:26.262Z,14.90
2018-05-10T18:51:54.630Z,14.90
2018-05-10T18:54:22.225Z,14.80
2018-05-10T18:56:50.574Z,14.70
2018-05-10T18:59:18.156Z,14.70
2018-05-10T19:01:45.780Z,14.60
2018-05-10T19:04:13.360Z,14.50
2018-05-10T19:06:40.937Z,14.40
2018-05-10T19:09:08.530Z,14.40
2018-05-10T19:11:36.880Z,14.20
2018-05-10T19:14:04.463Z,14.20
2018-05-10T19:16:32.062Z,14.20
2018-05-10T19:18:59.647Z,14.10
2018-05-10T19:21:28.151Z,14.10
2018-05-10T19:23:55.835Z,14.00
2018-05-10T19:26:23.455Z,13.90
2018-05-10T19:28:50.954Z,13.90
2018-05-10T19:31:20.258Z,13.80
2018-05-10T19:33:47.861Z,13.80
2018-05-10T19:36:16.217Z,13.70
2018-05-10T19:38:43.800Z,13.70
2018-05-10T19:41:12.056Z,13.60
2018-05-10T19:43:39.676Z,13.60
2018-05-10T19:46:08.048Z,13.50
2018-05-10T19:48:36.431Z,13.40
2018-05-10T19:51:04.039Z,13.40
2018-05-10T19:53:31.672Z,13.40
2018-05-10T19:55:59.274Z,13.30
2018-05-10T19:58:26.847Z,13.30
2018-05-10T20:00:54.401Z,13.20
2018-05-10T20:03:22.049Z,13.20
2018-05-10T20:05:49.625Z,13.20
2018-05-10T20:08:17.219Z,13.20
2018-05-10T20:10:44.829Z,13.10
2018-05-10T20:13:12.391Z,13.10
2018-05-10T20:15:39.971Z,13.10
2018-05-10T20:18:07.596Z,13.00
2018-05-10T20:20:35.993Z,13.00
2018-05-10T20:23:04.328Z,13.00
2018-05-10T20:25:31.899Z,12.90
2018-05-10T20:27:59.516Z,12.90
2018-05-10T20:30:27.100Z,12.90
2018-05-10T20:32:54.694Z,12.80
2018-05-10T20:35:22.313Z,12.80
2018-05-10T20:37:49.946Z,12.70
2018-05-10T20:40:17.535Z,12.70
2018-05-10T20:42:45.888Z,12.60
2018-05-10T20:45:13.476Z,12.60
2018-05-10T20:47:41.822Z,12.50
2018-05-10T20:50:09.449Z,12.50
2018-05-10T20:52:37.437Z,12.50
2018-05-10T20:55:05.027Z,12.50
2018-05-10T20:57:32.631Z,12.50
2018-05-10T21:00:00.963Z,12.30
2018-05-10T21:02:29.149Z,12.30
2018-05-10T21:04:56.723Z,12.30
2018-05-10T21:07:25.469Z,12.30
2018-05-10T21:09:53.116Z,12.30
2018-05-10T21:12:32.426Z,12.30
2018-05-10T21:15:00.022Z,12.30
2018-05-10T21:17:27.619Z,12.20
2018-05-10T21:19:55.208Z,12.20
2018-05-10T21:22:24.505Z,12.10
2018-05-10T21:24:52.921Z,12.00
2018-05-10T21:27:22.198Z,12.00
2018-05-10T21:29:49.803Z,11.90
2018-05-10T21:32:17.381Z,11.90
2018-05-10T21:34:44.991Z,11.80
2018-05-10T21:37:12.565Z,11.80
2018-05-10T21:39:40.987Z,11.80
2018-05-10T21:42:08.565Z,11.80
2018-05-10T21:44:36.155Z,11.70
2018-05-10T21:47:03.769Z,11.60
2018-05-10T21:49:43.287Z,11.50
2018-05-10T21:52:11.372Z,11.40
2018-05-10T21:54:39.743Z,11.20
2018-05-10T21:57:07.341Z,11.20
2018-05-10T21:59:34.951Z,11.20
2018-05-10T22:02:03.672Z,11.10
2018-05-10T22:04:31.264Z,11.10
2018-05-10T22:06:58.868Z,11.10
2018-05-10T22:09:26.462Z,11.00
2018-05-10T22:11:55.652Z,10.90
2018-05-10T22:14:23.232Z,10.80
2018-05-10T22:16:50.822Z,10.80
2018-05-10T22:19:19.156Z,10.60
2018-05-10T22:21:46.795Z,10.60
2018-05-10T22:24:14.375Z,10.60
2018-05-10T22:26:42.770Z,10.60
2018-05-10T22:29:10.345Z,10.50
2018-05-10T22:31:37.909Z,10.50
2018-05-10T22:34:05.467Z,10.40
2018-05-10T22:36:33.121Z,10.40
2018-05-10T22:39:00.722Z,10.40
2018-05-10T22:41:28.313Z,10.30
2018-05-10T22:43:58.048Z,10.20
2018-05-10T22:46:25.637Z,10.10
2018-05-10T22:48:53.244Z,10.00
2018-05-10T22:51:21.590Z,10.00
2018-05-10T22:53:50.372Z,9.90
2018-05-10T22:56:17.986Z,9.90
2018-05-10T22:58:47.848Z,9.90
2018-05-10T23:01:15.427Z,9.90
2018-05-10T23:03:43.002Z,9.80
2018-05-10T23:06:11.572Z,9.80
2018-05-10T23:08:39.137Z,9.70
2018-05-10T23:11:06.720Z,9.70
2018-05-10T23:13:34.289Z,9.70
2018-05-10T23:16:01.850Z,9.70
2018-05-10T23:18:29.445Z,9.70
2018-05-10T23:20:57.783Z,9.60
2018-05-10T23:23:25.379Z,9.60
2018-05-10T23:25:52.977Z,9.60
2018-05-10T23:28:20.564Z,9.60
2018-05-10T23:30:48.151Z,9.70
2018-05-10T23:33:15.723Z,9.70
2018-05-10T23:35:43.300Z,9.60
2018-05-10T23:38:10.860Z,9.60
2018-05-10T23:40:38.473Z,9.50
2018-05-10T23:43:06.040Z,9.50
2018-05-10T23:45:33.598Z,9.40
2018-05-10T23:48:01.155Z,9.40
2018-05-10T23:50:28.762Z,9.30
2018-05-10T23:52:56.347Z,9.30
2018-05-10T23:55:23.949Z,9.30
2018-05-10T23:57:51.518Z,9.30
